Airfield :
LOGIN :

Register | Disclaimer

   EN    FR    IT 

 










Legend :    VFR   Marginal VFR   IFR   Intensive IFR   Very Intensive IFR
Visi :
Ceiling :
>= 8 km
>= 3000ft
5 to 8 km
1000 to 3000 ft
1500m to 5 km
500 to 1000 ft
800 to 1500m
200 to 500 ft
< 800m
< 200 ft
Symbols :   Thunderstorms  Fog  Heavy snow  Heavy precipitations  Wind > 20 kt
SIGMETs :     Misc.  Thunderstorms  Icing  Turbulence  Mountain Waves  Volcanic Ashes






- Airport Elevation : 160 ft
- IATA code : LRT


LFRH - Lorient Lann Bihoue

CURRENT METAR :
  • 131630Z AUTO 25010KT 9999 FEW011 18/13 Q1014 BECMG 36005KT

EXPIRED METARs :
  • 131600Z AUTO 25011KT 9999 SCT013 18/14 Q1014 NOSIG
  • 131530Z AUTO 23012KT 9999 SCT012 18/14 Q1015 NOSIG
  • 131500Z AUTO 23013KT 9999 SCT012 18/14 Q1015 NOSIG
  • 131430Z AUTO 24012KT 210V270 9999 FEW015 18/13 Q1015 NOSIG
  • 131400Z AUTO 23013KT 9999 SCT017 SCT022 18/13 Q1015 NOSIG
  • 131330Z AUTO 24011KT 9999 FEW023 18/12 Q1015 NOSIG
  • 131300Z AUTO 25012KT 210V270 9999 FEW021 18/13 Q1015 NOSIG
  • 131230Z AUTO 24012KT 9999 FEW018 18/12 Q1015 NOSIG
  • 131200Z AUTO 23012KT 210V270 9999 FEW019 18/13 Q1015 NOSIG

TAF TAF LFRH
Valid from the 13 at 12:00 until the 14 at 12:00 UTC


131100Z 1312/1412 23010KT 9999 SCT020 SCT045
BECMG 1318/1320 36005KT
TEMPO 1400/1406 3000 BR
PROB40
TEMPO 1403/1405 0800 FG VV///
TEMPO 1406/1408 BKN004
BECMG 1410/1412 23010KT



MET'MAP, your aeronautical weather chart ! - Copyright ORBIFLY December 2007 - Disclaimer

ORBIFLY MET'MAP TEAM :

Programming & Development : Alexandra Zaïnal
Original concept : Baudouin d'Aumeries
Technical & hardware support : Manuel Goepfert
Assistance : Marc-Olivier Méhu




SOURCES & CREDITS :

   NOAA